Time;durP1;ratioP1;P1;durP2;ratioP2;P2;SDS_P1;SDS_P2;PMS_P1;PMS_P2;Temp;Humidity;BMP_temperature;BMP_pressure;BME280_temperature;BME280_humidity;BME280_pressure;Samples;Min_cycle;Max_cycle;Signal;HPM_P1;HPM_P2
2022/02/25 00:00:30;;;;;;;8.10;0.98;;;4.50;99.90;;;;;;5092807;28;20543;-77
2022/02/25 00:02:56;;;;;;;4.22;1.20;;;4.50;99.90;;;;;;5093021;28;20521;-76
2022/02/25 00:05:21;;;;;;;2.45;1.00;;;4.50;99.90;;;;;;5093930;28;20024;-76
2022/02/25 00:07:47;;;;;;;6.28;1.15;;;4.60;99.90;;;;;;5092883;28;20129;-76
2022/02/25 00:10:13;;;;;;;8.57;1.30;;;4.70;99.90;;;;;;5093650;28;20028;-76
2022/02/25 00:12:39;;;;;;;6.75;1.40;;;4.70;99.90;;;;;;5093598;28;20020;-76
2022/02/25 00:15:05;;;;;;;6.15;1.05;;;4.60;99.90;;;;;;5093167;28;20094;-76
2022/02/25 00:17:31;;;;;;;6.28;1.23;;;4.60;99.90;;;;;;5093852;28;20047;-76
2022/02/25 00:19:56;;;;;;;9.52;0.90;;;4.60;99.90;;;;;;5093408;28;20123;-76
2022/02/25 00:22:22;;;;;;;9.95;2.38;;;4.70;99.90;;;;;;5093091;28;20036;-76
2022/02/25 00:24:48;;;;;;;9.43;1.70;;;4.70;99.90;;;;;;5093246;28;20020;-77
2022/02/25 00:27:13;;;;;;;13.18;1.50;;;4.60;99.90;;;;;;5093606;28;20043;-74
2022/02/25 00:29:39;;;;;;;5.75;1.50;;;4.60;99.90;;;;;;5092302;28;20025;-77
2022/02/25 00:32:05;;;;;;;8.15;1.00;;;4.60;99.90;;;;;;5093597;28;20052;-75
2022/02/25 00:34:30;;;;;;;14.00;1.60;;;4.50;99.90;;;;;;5092789;28;20035;-76
2022/02/25 00:36:56;;;;;;;7.30;1.10;;;4.50;99.90;;;;;;5092530;28;20412;-76
2022/02/25 00:39:21;;;;;;;6.63;1.38;;;4.50;99.90;;;;;;5093030;28;20016;-76
2022/02/25 00:41:47;;;;;;;6.10;1.70;;;4.60;99.90;;;;;;5092259;28;20035;-76
2022/02/25 00:44:13;;;;;;;9.93;1.73;;;4.50;99.90;;;;;;5093088;28;20039;-74
2022/02/25 00:46:41;;;;;;;9.43;2.50;;;4.50;99.90;;;;;;5093070;28;20446;-76
2022/02/25 00:49:07;;;;;;;8.05;2.03;;;4.70;99.90;;;;;;5092773;28;20032;-77
2022/02/25 00:51:33;;;;;;;9.07;1.48;;;4.60;99.90;;;;;;5093046;28;20028;-77
2022/02/25 00:53:59;;;;;;;6.13;1.10;;;4.60;99.90;;;;;;5092416;28;20481;-76
2022/02/25 00:56:25;;;;;;;9.57;2.78;;;4.60;99.90;;;;;;5094182;28;20040;-75
2022/02/25 00:58:53;;;;;;;7.82;1.73;;;4.60;99.90;;;;;;5093766;28;20443;-76
2022/02/25 01:01:19;;;;;;;13.10;2.65;;;4.60;99.90;;;;;;5093808;28;20077;-76
2022/02/25 01:03:46;;;;;;;11.23;2.58;;;4.60;99.90;;;;;;5091816;28;20062;-77
2022/02/25 01:06:11;;;;;;;10.02;1.52;;;4.60;99.90;;;;;;5092710;28;20028;-76
2022/02/25 01:08:37;;;;;;;11.13;1.90;;;4.60;99.90;;;;;;5094702;28;20046;-76
2022/02/25 01:11:03;;;;;;;16.65;1.52;;;4.70;99.90;;;;;;5095605;28;20020;-76
2022/02/25 01:13:28;;;;;;;16.88;3.92;;;4.60;99.90;;;;;;5097000;28;20020;-75
2022/02/25 01:15:54;;;;;;;13.40;2.47;;;4.60;99.90;;;;;;5096197;28;20100;-75
2022/02/25 01:18:20;;;;;;;9.43;1.50;;;4.60;99.90;;;;;;5096262;28;20382;-77
2022/02/25 01:20:46;;;;;;;10.50;2.03;;;4.60;99.90;;;;;;5096698;28;20049;-76
2022/02/25 01:23:13;;;;;;;9.75;1.33;;;4.50;99.90;;;;;;5096849;28;20040;-76
2022/02/25 01:25:38;;;;;;;11.68;1.75;;;4.40;99.90;;;;;;5095355;28;20107;-76
2022/02/25 01:28:04;;;;;;;3.22;1.20;;;4.30;99.90;;;;;;5095980;28;20059;-74
2022/02/25 01:30:33;;;;;;;6.88;1.15;;;4.40;99.90;;;;;;5096157;28;20380;-74
2022/02/25 01:32:58;;;;;;;11.63;1.48;;;4.30;99.90;;;;;;5095480;28;20031;-75
2022/02/25 01:35:24;;;;;;;10.85;1.52;;;4.40;99.90;;;;;;5096481;28;20020;-76
2022/02/25 01:37:52;;;;;;;10.07;2.33;;;4.40;99.90;;;;;;5095900;28;20032;-75
2022/02/25 01:40:18;;;;;;;7.00;1.50;;;4.40;99.90;;;;;;5095848;28;20089;-75
2022/02/25 01:42:49;;;;;;;12.98;2.00;;;4.40;99.90;;;;;;5095650;28;20040;-76
2022/02/25 01:45:16;;;;;;;12.75;1.67;;;4.50;99.90;;;;;;5095229;28;20028;-77
2022/02/25 01:47:42;;;;;;;6.20;1.77;;;4.50;99.90;;;;;;5095403;28;20035;-76
2022/02/25 01:50:08;;;;;;;11.88;1.52;;;4.60;99.90;;;;;;5096466;28;20024;-77
2022/02/25 01:52:35;;;;;;;8.68;1.88;;;4.60;99.90;;;;;;5095501;28;20399;-77
2022/02/25 01:55:00;;;;;;;12.82;1.75;;;4.60;99.90;;;;;;5095695;28;20024;-76
2022/02/25 01:57:26;;;;;;;5.30;1.90;;;4.70;99.90;;;;;;5095759;28;20136;-75
2022/02/25 01:59:51;;;;;;;5.72;1.83;;;4.70;99.90;;;;;;5095178;28;20024;-76
2022/02/25 02:02:17;;;;;;;11.38;2.00;;;4.60;99.90;;;;;;5095885;28;20494;-76
2022/02/25 02:04:43;;;;;;;10.57;2.13;;;4.50;99.90;;;;;;5095027;28;20020;-75
2022/02/25 02:07:09;;;;;;;8.68;1.52;;;4.50;99.90;;;;;;5095405;28;20024;-76
2022/02/25 02:09:35;;;;;;;8.43;2.08;;;4.50;99.90;;;;;;5095706;28;20471;-76
2022/02/25 02:12:01;;;;;;;13.13;1.90;;;4.40;99.90;;;;;;5095160;28;20468;-76
2022/02/25 02:14:27;;;;;;;14.98;2.22;;;4.30;99.90;;;;;;5094571;28;20475;-76
2022/02/25 02:16:57;;;;;;;7.72;1.63;;;4.30;99.90;;;;;;5095272;28;20038;-76
2022/02/25 02:19:23;;;;;;;14.32;1.98;;;4.30;99.90;;;;;;5095418;28;20360;-75
2022/02/25 02:21:54;;;;;;;12.48;1.83;;;4.20;99.90;;;;;;5094428;28;20074;-76
2022/02/25 02:24:21;;;;;;;9.32;1.65;;;4.20;99.90;;;;;;5094958;28;20044;-75
2022/02/25 02:26:49;;;;;;;15.13;2.15;;;4.20;99.90;;;;;;5090863;28;20393;-76
2022/02/25 02:29:15;;;;;;;13.75;2.35;;;4.20;99.90;;;;;;5074441;28;20108;-76
2022/02/25 02:31:40;;;;;;;7.72;1.50;;;4.20;99.90;;;;;;5074789;28;20048;-76
2022/02/25 02:34:09;;;;;;;13.68;1.25;;;4.20;99.90;;;;;;5074765;28;20058;-76
2022/02/25 02:36:34;;;;;;;5.35;1.67;;;4.10;99.90;;;;;;5074122;28;20039;-76
2022/02/25 02:39:00;;;;;;;12.23;1.77;;;4.10;99.90;;;;;;5074763;28;20543;-76
2022/02/25 02:41:26;;;;;;;7.25;1.58;;;4.10;99.90;;;;;;5074249;28;20080;-75
2022/02/25 02:43:52;;;;;;;8.63;1.42;;;4.10;99.90;;;;;;5074338;28;20068;-75
2022/02/25 02:46:17;;;;;;;8.90;1.60;;;4.10;99.90;;;;;;5075331;28;20046;-75
2022/02/25 02:48:43;;;;;;;12.10;1.55;;;4.00;99.90;;;;;;5074115;28;20025;-76
2022/02/25 02:51:10;;;;;;;18.48;3.15;;;4.00;99.90;;;;;;5075065;28;20483;-76
2022/02/25 02:53:36;;;;;;;13.00;1.55;;;5.00;99.90;;;;;;5074842;28;20111;-77
2022/02/25 02:56:03;;;;;;;14.43;1.88;;;4.10;99.90;;;;;;5074012;28;20025;-77
2022/02/25 02:58:31;;;;;;;9.45;1.40;;;4.10;99.90;;;;;;5074615;28;20035;-77
2022/02/25 03:00:57;;;;;;;13.32;2.05;;;4.10;99.90;;;;;;5074057;28;20016;-74
2022/02/25 03:03:23;;;;;;;18.23;2.75;;;4.10;99.90;;;;;;5073273;28;20048;-76
2022/02/25 03:05:49;;;;;;;13.55;2.00;;;4.20;99.90;;;;;;5074269;28;20017;-75
2022/02/25 03:08:16;;;;;;;15.70;1.77;;;4.20;99.90;;;;;;5073983;28;20032;-75
2022/02/25 03:10:43;;;;;;;10.38;2.83;;;4.20;99.90;;;;;;5073649;28;20132;-75
2022/02/25 03:13:10;;;;;;;7.35;1.88;;;4.20;99.90;;;;;;5074519;28;20040;-75
2022/02/25 03:15:35;;;;;;;12.00;2.30;;;4.20;99.90;;;;;;5073922;28;20432;-76
2022/02/25 03:18:01;;;;;;;14.63;1.95;;;4.20;99.90;;;;;;5072665;28;20067;-76
2022/02/25 03:20:28;;;;;;;12.63;2.30;;;4.10;99.90;;;;;;5073617;28;20017;-77
2022/02/25 03:22:55;;;;;;;7.40;1.55;;;4.10;99.90;;;;;;5073124;28;20024;-76
2022/02/25 03:25:21;;;;;;;6.18;1.67;;;4.10;99.90;;;;;;5073121;28;20029;-75
2022/02/25 03:27:47;;;;;;;13.18;2.70;;;4.10;99.90;;;;;;5073750;28;20449;-75
2022/02/25 03:30:14;;;;;;;10.25;1.88;;;4.00;99.90;;;;;;5074152;28;20028;-76
2022/02/25 03:32:42;;;;;;;9.63;1.80;;;3.90;99.90;;;;;;5073019;28;20055;-76
2022/02/25 03:35:12;;;;;;;7.72;1.42;;;4.00;99.90;;;;;;5073630;28;20472;-75
2022/02/25 03:37:39;;;;;;;7.88;2.22;;;4.00;99.90;;;;;;5072795;28;20051;-75
2022/02/25 03:40:07;;;;;;;10.00;1.85;;;3.90;99.90;;;;;;5073579;28;20024;-75
2022/02/25 03:42:32;;;;;;;8.95;1.95;;;3.90;99.90;;;;;;5074007;28;20041;-77
2022/02/25 03:44:58;;;;;;;10.43;1.38;;;3.80;99.90;;;;;;5074038;28;20037;-75
2022/02/25 03:47:23;;;;;;;7.10;2.20;;;3.80;99.90;;;;;;5073883;28;20028;-75
2022/02/25 03:49:49;;;;;;;12.75;4.05;;;3.70;99.90;;;;;;5073169;28;20023;-77
2022/02/25 03:52:15;;;;;;;11.05;1.88;;;3.80;99.90;;;;;;5072226;28;20068;-76
2022/02/25 03:54:40;;;;;;;19.63;2.75;;;3.80;99.90;;;;;;5073836;28;20027;-75
2022/02/25 03:57:06;;;;;;;11.57;2.10;;;3.70;99.90;;;;;;5073260;28;20097;-77
2022/02/25 03:59:31;;;;;;;15.10;2.20;;;3.70;99.90;;;;;;5072728;28;20032;-76
2022/02/25 04:01:57;;;;;;;8.73;1.75;;;3.70;99.90;;;;;;5072948;28;20060;-75
2022/02/25 04:04:25;;;;;;;14.35;2.13;;;3.70;99.90;;;;;;5073360;28;20041;-75
2022/02/25 04:06:51;;;;;;;8.80;1.48;;;3.70;99.90;;;;;;5072243;28;20028;-75
2022/02/25 04:09:18;;;;;;;18.10;2.10;;;3.70;99.90;;;;;;5073610;28;20111;-76
2022/02/25 04:11:52;;;;;;;9.98;1.98;;;3.60;99.90;;;;;;5073050;28;20046;-76
2022/02/25 04:14:20;;;;;;;15.60;1.90;;;3.60;99.90;;;;;;5072727;28;20021;-75
2022/02/25 04:16:49;;;;;;;11.10;2.35;;;3.60;99.90;;;;;;5073477;28;20369;-76
2022/02/25 04:19:15;;;;;;;13.80;2.78;;;3.70;99.90;;;;;;5073149;28;20024;-76
2022/02/25 04:21:41;;;;;;;21.58;2.28;;;3.80;99.90;;;;;;5072452;28;20498;-76
2022/02/25 04:24:07;;;;;;;12.35;2.28;;;3.80;99.90;;;;;;5073274;28;20452;-76
2022/02/25 04:26:33;;;;;;;12.05;3.03;;;3.90;99.90;;;;;;5073258;28;20024;-76
2022/02/25 04:28:59;;;;;;;15.18;3.33;;;3.90;99.90;;;;;;5072402;28;20024;-76
2022/02/25 04:31:25;;;;;;;11.43;2.25;;;3.90;99.90;;;;;;5073359;28;20036;-76
2022/02/25 04:33:53;;;;;;;22.42;3.92;;;4.00;99.90;;;;;;5072058;28;20029;-76
2022/02/25 04:36:22;;;;;;;18.67;2.88;;;4.10;99.90;;;;;;5073044;28;20107;-75
2022/02/25 04:38:48;;;;;;;17.13;2.33;;;4.10;99.90;;;;;;5072928;28;20017;-76
2022/02/25 04:41:15;;;;;;;10.82;1.58;;;4.10;99.90;;;;;;5072309;28;20032;-76
2022/02/25 04:43:41;;;;;;;22.13;2.38;;;4.20;99.90;;;;;;5072979;28;20119;-76
2022/02/25 04:46:06;;;;;;;24.52;2.75;;;4.20;99.90;;;;;;5075628;28;20439;-76
2022/02/25 04:48:32;;;;;;;13.18;2.78;;;4.30;99.90;;;;;;5076487;28;20028;-76
2022/02/25 04:50:57;;;;;;;16.58;2.10;;;4.30;99.90;;;;;;5076932;28;20029;-75
2022/02/25 04:53:23;;;;;;;17.15;2.13;;;4.30;99.90;;;;;;5077163;28;20064;-76
2022/02/25 04:55:48;;;;;;;14.00;2.63;;;4.30;99.90;;;;;;5075930;28;20024;-76
2022/02/25 04:58:17;;;;;;;17.15;2.05;;;4.40;99.90;;;;;;5076831;28;20100;-75
2022/02/25 05:00:44;;;;;;;14.13;2.53;;;4.40;99.90;;;;;;5076517;28;20021;-76
2022/02/25 05:03:12;;;;;;;16.90;3.03;;;4.40;99.90;;;;;;5075792;28;20107;-77
2022/02/25 05:05:37;;;;;;;16.48;2.92;;;4.40;99.90;;;;;;5076848;28;20024;-77
2022/02/25 05:08:03;;;;;;;22.48;4.03;;;4.40;99.90;;;;;;5076846;28;20025;-77
2022/02/25 05:10:32;;;;;;;17.35;2.20;;;4.40;99.90;;;;;;5075740;28;20476;-77
2022/02/25 05:12:57;;;;;;;16.27;2.33;;;4.40;99.90;;;;;;5076288;28;20024;-75
2022/02/25 05:20:53;;;;;;;13.10;3.03;;;4.50;99.90;;;;;;5075904;28;20070;-76
2022/02/25 05:23:19;;;;;;;13.60;2.75;;;4.50;99.90;;;;;;5075059;28;20480;-76
2022/02/25 05:25:45;;;;;;;15.32;2.63;;;4.50;99.90;;;;;;5076170;28;20108;-76
2022/02/25 05:28:11;;;;;;;14.63;2.92;;;4.50;99.90;;;;;;5076150;28;20458;-76
2022/02/25 05:30:37;;;;;;;10.68;1.55;;;4.50;99.90;;;;;;5076037;28;20081;-76
2022/02/25 05:33:03;;;;;;;9.40;2.10;;;4.40;99.90;;;;;;5076673;28;20025;-76
2022/02/25 05:35:29;;;;;;;6.72;1.73;;;4.50;99.90;;;;;;5076966;28;20104;-75
2022/02/25 05:37:55;;;;;;;29.42;5.47;;;4.50;99.90;;;;;;5075713;28;20017;-74
2022/02/25 05:40:22;;;;;;;12.23;1.77;;;4.50;99.90;;;;;;5075515;28;20077;-74
2022/02/25 05:42:48;;;;;;;13.05;2.05;;;4.50;99.90;;;;;;5076092;28;20032;-76
2022/02/25 05:45:15;;;;;;;18.75;2.45;;;4.50;99.90;;;;;;5075717;28;20029;-74
2022/02/25 05:47:41;;;;;;;23.65;2.85;;;4.60;99.90;;;;;;5075922;28;20025;-75
2022/02/25 05:50:12;;;;;;;26.85;2.58;;;4.60;99.90;;;;;;5074968;28;20075;-75
2022/02/25 05:52:38;;;;;;;10.68;2.35;;;4.70;99.90;;;;;;5074736;28;20415;-75
2022/02/25 05:55:03;;;;;;;11.45;2.20;;;4.80;99.90;;;;;;5075197;28;20029;-76
2022/02/25 05:57:29;;;;;;;28.92;3.38;;;4.70;99.90;;;;;;5075147;28;20028;-76
2022/02/25 05:59:54;;;;;;;16.38;2.30;;;4.80;99.90;;;;;;5074133;28;20024;-75
2022/02/25 06:02:21;;;;;;;12.90;1.67;;;4.80;99.90;;;;;;5075953;28;20151;-75
2022/02/25 06:04:46;;;;;;;29.98;3.10;;;4.90;99.90;;;;;;5075488;28;20059;-76
2022/02/25 06:07:12;;;;;;;12.73;2.03;;;4.90;99.90;;;;;;5075616;28;20044;-76
2022/02/25 06:09:38;;;;;;;17.58;3.50;;;4.90;99.90;;;;;;5075686;28;20028;-75
2022/02/25 06:12:04;;;;;;;16.98;3.00;;;4.90;99.90;;;;;;5075201;28;20070;-76
2022/02/25 06:14:29;;;;;;;16.90;2.60;;;4.90;99.90;;;;;;5073762;28;20028;-76
2022/02/25 06:16:55;;;;;;;22.45;3.97;;;5.00;99.90;;;;;;5074766;28;20506;-77
2022/02/25 06:19:20;;;;;;;12.20;2.28;;;5.00;99.90;;;;;;5075701;28;20039;-76
2022/02/25 06:21:46;;;;;;;15.15;2.78;;;5.00;99.90;;;;;;5075549;28;20029;-76
2022/02/25 06:24:11;;;;;;;15.85;3.55;;;5.10;99.90;;;;;;5075212;28;20047;-76
2022/02/25 06:26:37;;;;;;;22.73;2.88;;;5.10;99.90;;;;;;5074907;28;20032;-75
2022/02/25 06:29:04;;;;;;;24.05;2.13;;;5.10;99.90;;;;;;5075161;28;20476;-76
2022/02/25 06:31:29;;;;;;;15.73;1.95;;;5.20;99.90;;;;;;5075207;28;20030;-76
2022/02/25 06:33:55;;;;;;;20.23;2.28;;;5.20;99.90;;;;;;5073973;28;20103;-76
2022/02/25 06:36:20;;;;;;;7.35;2.72;;;5.30;99.90;;;;;;5074880;28;20070;-75
2022/02/25 06:38:48;;;;;;;10.77;1.92;;;5.30;99.90;;;;;;5074821;28;20426;-76
2022/02/25 06:41:14;;;;;;;8.15;2.20;;;5.40;99.90;;;;;;5073972;28;20483;-76
2022/02/25 06:43:40;;;;;;;20.90;2.38;;;5.40;99.90;;;;;;5074212;28;20033;-76
2022/02/25 06:46:07;;;;;;;21.15;2.53;;;5.50;99.90;;;;;;5074530;28;20023;-77
2022/02/25 06:48:32;;;;;;;11.82;1.83;;;5.50;99.90;;;;;;5074223;28;20106;-76
2022/02/25 06:50:58;;;;;;;16.27;2.08;;;5.50;99.90;;;;;;5074172;28;20024;-77
2022/02/25 06:53:23;;;;;;;20.40;3.90;;;5.40;99.90;;;;;;5073936;28;20032;-75
2022/02/25 06:55:49;;;;;;;9.57;1.98;;;5.40;99.90;;;;;;5073294;28;20045;-75
2022/02/25 06:58:15;;;;;;;6.50;2.08;;;5.40;99.90;;;;;;5082121;28;20040;-76
2022/02/25 07:00:40;;;;;;;14.68;2.63;;;5.50;99.90;;;;;;5087344;28;20020;-75
2022/02/25 07:03:07;;;;;;;16.98;2.60;;;5.50;99.90;;;;;;5089080;28;20058;-77
2022/02/25 07:05:39;;;;;;;14.55;1.88;;;5.50;99.90;;;;;;5092290;28;20147;-76
2022/02/25 07:08:05;;;;;;;14.45;2.50;;;5.60;99.90;;;;;;5084725;28;20119;-75
2022/02/25 07:10:32;;;;;;;14.82;2.78;;;5.60;99.90;;;;;;5090887;28;20464;-76
2022/02/25 07:12:58;;;;;;;15.80;2.35;;;5.60;99.90;;;;;;5089089;28;20233;-76
2022/02/25 07:15:23;;;;;;;6.55;1.27;;;5.70;99.90;;;;;;5086799;28;20039;-76
2022/02/25 07:17:52;;;;;;;11.82;2.20;;;5.70;99.90;;;;;;5091003;28;20386;-75
2022/02/25 07:20:18;;;;;;;8.23;2.75;;;5.80;99.90;;;;;;5089466;28;20349;-76
2022/02/25 07:22:43;;;;;;;14.02;2.63;;;5.80;99.90;;;;;;5091332;28;20085;-76
2022/02/25 07:25:09;;;;;;;23.65;4.22;;;5.80;99.90;;;;;;5086100;28;20032;-77
2022/02/25 07:27:35;;;;;;;16.77;2.10;;;5.90;99.90;;;;;;5085703;28;20017;-75
2022/02/25 07:30:00;;;;;;;15.75;4.47;;;5.90;99.90;;;;;;5072417;28;20028;-76
2022/02/25 07:32:26;;;;;;;16.88;2.58;;;5.90;99.90;;;;;;5071637;28;20449;-75
2022/02/25 07:34:53;;;;;;;16.65;2.47;;;6.00;99.90;;;;;;5071509;28;20028;-76
2022/02/25 07:37:19;;;;;;;20.92;3.25;;;6.00;99.90;;;;;;5070811;28;20020;-76
2022/02/25 07:39:44;;;;;;;18.40;2.38;;;6.10;99.90;;;;;;5074851;28;20024;-77
2022/02/25 07:42:10;;;;;;;20.20;2.28;;;6.00;99.90;;;;;;5091584;28;20085;-75
2022/02/25 07:44:36;;;;;;;20.70;2.35;;;6.10;99.90;;;;;;5090909;28;20036;-76
2022/02/25 07:47:02;;;;;;;13.05;3.20;;;6.10;99.90;;;;;;5091568;28;20052;-76
2022/02/25 07:49:27;;;;;;;13.30;2.42;;;6.10;99.90;;;;;;5089123;28;20024;-76
2022/02/25 07:51:56;;;;;;;17.70;3.20;;;6.10;99.90;;;;;;5082261;28;20122;-79
2022/02/25 07:54:21;;;;;;;17.92;2.67;;;6.20;99.90;;;;;;5074963;28;20038;-79
2022/02/25 07:56:47;;;;;;;17.38;3.13;;;6.20;99.90;;;;;;5073361;28;20037;-79
2022/02/25 07:59:13;;;;;;;22.33;2.45;;;6.20;99.90;;;;;;5071348;28;20524;-79
2022/02/25 08:01:40;;;;;;;19.52;2.50;;;6.30;99.90;;;;;;5076452;28;20111;-79
2022/02/25 08:04:07;;;;;;;15.30;3.05;;;6.30;99.90;;;;;;5075239;28;20078;-78
2022/02/25 08:06:33;;;;;;;15.50;3.17;;;6.30;99.90;;;;;;5071720;28;20029;-81
2022/02/25 08:08:58;;;;;;;21.35;3.03;;;6.30;99.90;;;;;;5072296;28;20085;-81
2022/02/25 08:11:24;;;;;;;15.65;2.35;;;6.30;99.90;;;;;;5075316;28;20495;-79
2022/02/25 08:13:49;;;;;;;23.58;3.15;;;6.40;99.90;;;;;;5071250;28;20048;-79
2022/02/25 08:16:15;;;;;;;17.33;2.80;;;6.50;99.90;;;;;;5075145;28;20353;-81
2022/02/25 08:18:41;;;;;;;15.52;2.00;;;6.60;99.90;;;;;;5073402;28;20048;-83
2022/02/25 08:21:06;;;;;;;9.48;2.10;;;6.70;99.90;;;;;;5088539;28;20020;-81
2022/02/25 08:23:32;;;;;;;10.60;2.03;;;6.70;99.90;;;;;;5089728;28;20036;-84
2022/02/25 08:25:57;;;;;;;16.83;4.15;;;6.70;99.90;;;;;;5093357;28;20037;-83
2022/02/25 08:28:23;;;;;;;14.70;2.63;;;6.70;99.90;;;;;;5094131;28;20137;-80
2022/02/25 08:30:49;;;;;;;15.25;2.58;;;6.60;99.90;;;;;;5094722;28;20020;-82
2022/02/25 08:33:14;;;;;;;6.05;1.58;;;6.50;99.90;;;;;;5097526;28;20039;-83
2022/02/25 08:35:41;;;;;;;7.53;1.95;;;6.50;99.90;;;;;;5080515;28;20020;-83
2022/02/25 08:38:08;;;;;;;20.25;3.15;;;6.60;99.90;;;;;;5082314;28;20024;-80
2022/02/25 08:40:34;;;;;;;11.63;2.10;;;6.70;99.90;;;;;;5082048;28;20064;-81
2022/02/25 08:43:00;;;;;;;14.13;2.75;;;6.80;99.90;;;;;;5083567;28;20029;-81
2022/02/25 08:45:28;;;;;;;21.23;3.28;;;6.90;99.90;;;;;;5079819;28;20027;-83
2022/02/25 08:47:54;;;;;;;10.45;0.93;;;7.10;99.90;;;;;;5077858;28;20494;-85
2022/02/25 08:50:20;;;;;;;14.55;2.28;;;7.10;99.90;;;;;;5079897;28;20024;-80
2022/02/25 08:52:50;;;;;;;11.93;2.17;;;7.10;99.90;;;;;;5080395;28;20044;-82
2022/02/25 08:55:16;;;;;;;14.70;2.70;;;7.10;99.90;;;;;;5082815;28;20024;-79
2022/02/25 08:57:42;;;;;;;12.30;1.95;;;7.00;99.90;;;;;;5079263;28;20086;-76
2022/02/25 09:00:11;;;;;;;16.90;2.03;;;6.90;99.90;;;;;;5078040;28;20422;-81
2022/02/25 09:02:37;;;;;;;11.25;2.45;;;6.90;99.90;;;;;;5076596;28;20053;-77
2022/02/25 09:05:03;;;;;;;15.63;2.70;;;6.80;99.90;;;;;;5077221;28;20024;-79
2022/02/25 09:07:29;;;;;;;15.38;3.30;;;6.80;99.90;;;;;;5077911;28;20032;-81
2022/02/25 09:09:55;;;;;;;16.67;3.70;;;6.70;99.90;;;;;;5078197;28;20357;-80
2022/02/25 09:12:20;;;;;;;16.33;2.75;;;6.70;99.90;;;;;;5078211;28;20376;-79
2022/02/25 09:14:46;;;;;;;12.00;1.90;;;6.70;99.90;;;;;;5078592;28;20039;-79
2022/02/25 09:17:12;;;;;;;10.77;1.73;;;6.70;99.90;;;;;;5076355;28;20027;-76
2022/02/25 09:19:39;;;;;;;11.25;2.22;;;6.70;99.90;;;;;;5076852;28;20033;-79
2022/02/25 09:22:06;;;;;;;12.13;2.75;;;6.60;99.90;;;;;;5076323;28;20070;-82
2022/02/25 09:24:32;;;;;;;11.75;1.38;;;6.60;99.90;;;;;;5077663;28;20498;-75
2022/02/25 09:26:57;;;;;;;20.45;2.83;;;6.70;99.90;;;;;;5076759;28;20499;-82
2022/02/25 09:29:23;;;;;;;20.02;2.85;;;6.80;99.90;;;;;;5076177;28;20531;-80
2022/02/25 09:31:49;;;;;;;12.23;2.22;;;6.80;99.90;;;;;;5085987;28;20105;-81
2022/02/25 09:34:15;;;;;;;9.90;2.40;;;6.90;99.90;;;;;;5078451;28;20020;-79
2022/02/25 09:36:41;;;;;;;12.65;1.73;;;6.90;99.90;;;;;;5075437;28;20071;-79
2022/02/25 09:39:07;;;;;;;18.70;2.95;;;6.90;99.90;;;;;;5086846;28;20031;-80
2022/02/25 09:41:33;;;;;;;17.45;2.13;;;6.90;99.90;;;;;;5087250;28;20372;-80
2022/02/25 09:43:59;;;;;;;16.98;2.22;;;6.90;99.90;;;;;;5081125;28;20644;-81
2022/02/25 09:46:24;;;;;;;11.93;1.90;;;6.90;99.90;;;;;;5075937;28;20166;-81
2022/02/25 09:48:50;;;;;;;19.42;2.95;;;6.90;99.90;;;;;;5076951;28;20200;-82
2022/02/25 09:51:16;;;;;;;11.02;2.45;;;6.90;99.90;;;;;;5076047;28;20017;-80
2022/02/25 09:53:42;;;;;;;23.15;3.97;;;6.90;99.90;;;;;;5076468;28;20024;-79
2022/02/25 09:56:07;;;;;;;10.05;2.10;;;6.90;99.90;;;;;;5095308;28;20085;-78
2022/02/25 09:58:33;;;;;;;16.27;2.17;;;6.90;99.90;;;;;;5095034;28;20024;-74
2022/02/25 10:00:58;;;;;;;14.57;3.17;;;6.80;99.90;;;;;;5095478;28;20601;-76
2022/02/25 10:03:29;;;;;;;13.85;1.73;;;6.90;99.90;;;;;;5095202;28;20056;-77
2022/02/25 10:06:03;;;;;;;18.92;2.78;;;6.80;99.90;;;;;;5094302;28;20028;-73
2022/02/25 10:08:29;;;;;;;13.30;2.03;;;6.80;99.90;;;;;;5095133;28;20541;-77
2022/02/25 10:10:56;;;;;;;8.45;1.33;;;6.80;99.90;;;;;;5095289;28;20036;-79
2022/02/25 10:13:27;;;;;;;15.43;2.65;;;6.90;99.90;;;;;;5094901;28;20483;-77
2022/02/25 10:15:56;;;;;;;24.48;2.08;;;7.00;99.90;;;;;;5094814;28;20462;-77
2022/02/25 10:18:23;;;;;;;18.55;2.45;;;7.10;99.90;;;;;;5096041;28;20028;-77
2022/02/25 10:20:49;;;;;;;14.00;2.97;;;7.10;99.90;;;;;;5094382;28;20085;-81
2022/02/25 10:23:25;;;;;;;26.85;3.28;;;7.10;99.90;;;;;;5095615;28;20123;-79
2022/02/25 10:25:52;;;;;;;10.98;1.65;;;7.20;99.90;;;;;;5094532;28;20032;-77
2022/02/25 10:28:31;;;;;;;9.45;1.77;;;7.20;99.90;;;;;;5085505;28;20016;-77
2022/02/25 10:31:27;;;;;;;15.93;2.78;;;7.30;99.90;;;;;;5085753;28;20025;-76
2022/02/25 10:33:59;;;;;;;11.60;3.08;;;7.50;99.90;;;;;;5087714;28;20028;-81
2022/02/25 10:36:44;;;;;;;11.80;1.77;;;7.50;99.90;;;;;;5101359;28;20424;-77
2022/02/25 10:39:15;;;;;;;17.13;3.30;;;7.50;99.90;;;;;;5094508;28;20023;-77
2022/02/25 10:41:40;;;;;;;;;;;7.70;99.90;;;;;;5096990;28;20031;-76
2022/02/25 10:44:06;;;;;;;7.85;1.50;;;7.80;99.90;;;;;;5107042;28;20274;-76
2022/02/25 10:46:32;;;;;;;4.50;1.27;;;8.00;99.90;;;;;;5092339;28;20024;-76
2022/02/25 10:49:07;;;;;;;8.68;2.15;;;8.00;99.90;;;;;;5095720;28;20035;-77
2022/02/25 10:51:37;;;;;;;11.73;2.67;;;8.10;99.90;;;;;;5109584;28;20027;-76
2022/02/25 10:54:04;;;;;;;16.52;3.75;;;8.10;99.90;;;;;;5099302;28;20028;-79
2022/02/25 10:56:46;;;;;;;14.68;1.88;;;8.00;99.90;;;;;;5104516;28;20020;-77
2022/02/25 10:59:12;;;;;;;9.27;2.50;;;7.90;99.90;;;;;;5096577;28;20024;-77
2022/02/25 11:01:39;;;;;;;14.73;2.85;;;7.80;99.90;;;;;;5099438;28;20353;-78
2022/02/25 11:04:06;;;;;;;9.25;2.38;;;7.80;99.90;;;;;;5095559;28;20043;-76
2022/02/25 11:06:32;;;;;;;20.42;2.08;;;7.90;99.90;;;;;;5109192;28;20020;-77
2022/02/25 11:08:58;;;;;;;12.48;2.67;;;7.80;99.90;;;;;;5112341;28;20035;-78
2022/02/25 11:11:25;;;;;;;9.73;1.48;;;8.00;99.90;;;;;;5094113;28;20027;-77
2022/02/25 11:13:51;;;;;;;13.48;2.63;;;8.10;99.90;;;;;;5092708;28;20115;-78
2022/02/25 11:16:20;;;;;;;13.20;2.97;;;8.20;99.90;;;;;;5092958;28;20024;-78
2022/02/25 11:18:48;;;;;;;12.48;2.22;;;8.30;99.90;;;;;;5092736;28;20024;-77
2022/02/25 11:21:15;;;;;;;21.48;3.55;;;8.40;99.90;;;;;;5092678;28;20592;-76
2022/02/25 11:23:43;;;;;;;17.30;3.38;;;8.60;99.90;;;;;;5091649;28;20043;-79
2022/02/25 11:26:20;;;;;;;16.35;2.50;;;8.60;99.90;;;;;;5094058;28;20071;-78
2022/02/25 11:28:47;;;;;;;10.93;3.38;;;8.80;99.90;;;;;;5096070;28;20028;-77
2022/02/25 11:31:22;;;;;;;15.55;2.30;;;8.80;99.90;;;;;;5093366;28;20024;-76
2022/02/25 11:33:52;;;;;;;15.43;2.88;;;8.70;99.90;;;;;;5093458;28;20089;-78
2022/02/25 11:36:38;;;;;;;8.95;2.30;;;8.50;99.90;;;;;;5092721;28;20024;-78
2022/02/25 11:39:24;;;;;;;12.65;2.97;;;8.40;99.90;;;;;;5092928;28;20035;-78
2022/02/25 11:41:58;;;;;;;13.45;2.53;;;8.30;99.90;;;;;;5093489;28;20364;-77
2022/02/25 11:44:25;;;;;;;24.10;3.08;;;8.40;99.90;;;;;;5092849;28;20077;-77
2022/02/25 11:46:52;;;;;;;20.08;3.10;;;8.30;99.90;;;;;;5093481;28;20466;-78
2022/02/25 11:49:19;;;;;;;17.13;2.05;;;8.30;99.90;;;;;;5093697;28;20157;-77
2022/02/25 11:51:50;;;;;;;19.30;2.20;;;8.20;99.90;;;;;;5092671;28;20076;-78
2022/02/25 11:54:28;;;;;;;13.20;2.60;;;8.20;99.90;;;;;;5093050;28;20488;-76
2022/02/25 11:56:56;;;;;;;15.70;2.95;;;8.10;99.90;;;;;;5093249;28;20035;-77
2022/02/25 11:59:47;;;;;;;17.10;2.67;;;8.20;99.90;;;;;;5093068;28;20019;-78
2022/02/25 12:02:16;;;;;;;;;;;8.40;99.90;;;;;;5047871;28;20044;-79
2022/02/25 12:04:45;;;;;;;16.55;2.38;;;8.70;99.90;;;;;;5092354;28;19926;-77
2022/02/25 12:07:16;;;;;;;16.98;2.65;;;8.90;99.90;;;;;;5093207;28;20059;-78
2022/02/25 12:09:50;;;;;;;12.27;2.15;;;8.80;99.90;;;;;;5093096;28;20042;-77
2022/02/25 12:12:28;;;;;;;12.65;2.17;;;8.70;99.90;;;;;;5092565;28;20557;-77
2022/02/25 12:15:17;;;;;;;19.27;3.25;;;8.60;99.90;;;;;;5093080;28;20114;-77
2022/02/25 12:17:55;;;;;;;6.93;2.45;;;8.50;99.90;;;;;;5092759;28;20035;-79
2022/02/25 12:20:46;;;;;;;13.65;2.58;;;8.60;99.90;;;;;;5092297;28;20021;-77
2022/02/25 12:23:11;;;;;;;;;;;8.50;99.90;;;;;;5093810;28;20122;-78
2022/02/25 12:25:39;;;;;;;10.27;2.08;;;8.40;99.90;;;;;;5092876;28;19933;-77
2022/02/25 12:28:11;;;;;;;16.38;2.65;;;8.30;99.90;;;;;;5093247;28;20476;-76
2022/02/25 12:30:53;;;;;;;21.63;2.97;;;8.50;99.90;;;;;;5093947;28;20047;-78
2022/02/25 12:33:40;;;;;;;7.35;2.38;;;8.80;99.90;;;;;;5092266;28;20031;-78
2022/02/25 12:36:29;;;;;;;14.55;2.20;;;8.90;99.90;;;;;;5093313;28;20036;-79
2022/02/25 12:39:31;;;;;;;13.15;2.42;;;8.90;99.90;;;;;;5092580;28;20024;-77
2022/02/25 12:42:02;;;;;;;9.07;2.50;;;8.90;99.90;;;;;;5092393;28;20066;-77
2022/02/25 12:44:34;;;;;;;18.02;3.00;;;8.90;99.90;;;;;;5092700;28;20070;-78
2022/02/25 12:47:03;;;;;;;14.75;2.03;;;8.90;99.90;;;;;;5091691;28;20047;-78
2022/02/25 12:49:32;;;;;;;23.52;3.22;;;8.90;99.90;;;;;;5092898;28;20078;-76
2022/02/25 12:52:05;;;;;;;19.15;2.70;;;8.80;99.90;;;;;;5092810;28;20028;-77
2022/02/25 12:54:35;;;;;;;6.47;1.83;;;8.70;99.90;;;;;;5092413;28;20111;-78
2022/02/25 12:57:03;;;;;;;8.70;1.95;;;8.50;99.90;;;;;;5092590;28;20024;-77